sensor_id;sensor_type;location;lat;lon;timestamp;P1;P4;P2;P0;N10;N4;N25;N1;N05;TS
67739;SPS30;54536;50.090;14.420;2024-01-25T00:00:19;7.23;6.91;5.62;3.90;32.78;32.74;32.51;30.72;24.35;0.77
67739;SPS30;54536;50.090;14.420;2024-01-25T00:03:05;6.52;6.25;5.18;3.75;31.63;31.60;31.41;29.92;24.12;0.74
67739;SPS30;54536;50.090;14.420;2024-01-25T00:05:31;7.19;6.89;5.69;4.08;34.36;34.32;34.11;32.44;26.05;0.75
67739;SPS30;54536;50.090;14.420;2024-01-25T00:07:58;6.23;5.97;4.92;3.52;29.65;29.62;29.43;27.98;22.45;0.76
67739;SPS30;54536;50.090;14.420;2024-01-25T00:10:23;6.83;6.52;5.27;3.62;30.31;30.28;30.06;28.33;22.33;0.78
67739;SPS30;54536;50.090;14.420;2024-01-25T00:12:52;6.86;6.57;5.40;3.84;32.32;32.28;32.08;30.45;24.37;0.76
67739;SPS30;54536;50.090;14.420;2024-01-25T00:15:18;5.36;5.16;4.35;3.25;27.43;27.41;27.27;26.13;21.32;0.73
67739;SPS30;54536;50.090;14.420;2024-01-25T00:17:44;5.78;5.56;4.67;3.47;29.34;29.31;29.16;27.91;22.73;0.73
67739;SPS30;54536;50.090;14.420;2024-01-25T00:20:10;6.05;5.82;4.88;3.61;30.46;30.43;30.26;28.95;23.53;0.74
67739;SPS30;54536;50.090;14.420;2024-01-25T00:22:37;5.81;5.58;4.64;3.38;28.48;28.45;28.28;26.97;21.79;0.73
67739;SPS30;54536;50.090;14.420;2024-01-25T00:25:07;5.49;5.27;4.40;3.23;27.25;27.22;27.07;25.85;20.95;0.73
67739;SPS30;54536;50.090;14.420;2024-01-25T00:27:33;5.59;5.37;4.46;3.24;27.28;27.25;27.09;25.82;20.84;0.75
67739;SPS30;54536;50.090;14.420;2024-01-25T00:29:59;6.28;6.02;4.97;3.57;30.08;30.04;29.86;28.40;22.82;0.77
67739;SPS30;54536;50.090;14.420;2024-01-25T00:32:26;5.67;5.43;4.45;3.15;26.52;26.49;26.32;24.97;19.94;0.78
67739;SPS30;54536;50.090;14.420;2024-01-25T00:34:52;6.99;6.69;5.49;3.90;32.78;32.74;32.53;30.87;24.68;0.77
67739;SPS30;54536;50.090;14.420;2024-01-25T00:37:18;6.52;6.23;5.07;3.53;29.64;29.61;29.40;27.80;22.05;0.78
67739;SPS30;54536;50.090;14.420;2024-01-25T00:39:45;6.17;5.90;4.83;3.40;28.56;28.53;28.34;26.85;21.39;0.76
67739;SPS30;54536;50.090;14.420;2024-01-25T00:42:12;6.36;6.08;4.95;3.46;29.03;29.00;28.80;27.24;21.62;0.76
67739;SPS30;54536;50.090;14.420;2024-01-25T00:44:39;6.04;5.79;4.78;3.44;28.94;28.91;28.73;27.33;21.96;0.74
67739;SPS30;54536;50.090;14.420;2024-01-25T00:47:06;6.36;6.07;4.93;3.41;28.62;28.59;28.39;26.80;21.20;0.78
67739;SPS30;54536;50.090;14.420;2024-01-25T00:49:32;6.34;6.07;4.98;3.54;29.74;29.70;29.51;28.01;22.39;0.75
67739;SPS30;54536;50.090;14.420;2024-01-25T00:51:59;5.62;5.39;4.42;3.14;26.43;26.40;26.23;24.89;19.91;0.76
67739;SPS30;54536;50.090;14.420;2024-01-25T00:54:25;6.34;6.06;4.94;3.46;29.06;29.02;28.83;27.28;21.68;0.76
67739;SPS30;54536;50.090;14.420;2024-01-25T00:56:52;6.30;6.02;4.90;3.41;28.65;28.61;28.42;26.86;21.31;0.75
67739;SPS30;54536;50.090;14.420;2024-01-25T00:59:18;6.37;6.07;4.89;3.33;27.91;27.88;27.67;26.04;20.45;0.78
67739;SPS30;54536;50.090;14.420;2024-01-25T01:01:48;8.00;7.61;6.03;3.96;33.11;33.06;32.78;30.62;23.65;0.80
67739;SPS30;54536;50.090;14.420;2024-01-25T01:04:18;7.39;7.03;5.57;3.66;30.54;30.50;30.24;28.24;21.79;0.79
67739;SPS30;54536;50.090;14.420;2024-01-25T01:06:45;7.44;7.09;5.67;3.80;31.80;31.75;31.51;29.56;23.04;0.77
67739;SPS30;54536;50.090;14.420;2024-01-25T01:09:13;6.71;6.41;5.19;3.59;30.08;30.04;29.83;28.15;22.23;0.75
67739;SPS30;54536;50.090;14.420;2024-01-25T01:11:39;6.91;6.59;5.31;3.61;30.27;30.23;30.00;28.23;22.16;0.76
67739;SPS30;54536;50.090;14.420;2024-01-25T01:14:05;5.90;5.65;4.65;3.32;27.94;27.91;27.73;26.35;21.11;0.74
67739;SPS30;54536;50.090;14.420;2024-01-25T01:16:31;6.01;5.76;4.76;3.43;28.92;28.89;28.71;27.33;21.99;0.73
67739;SPS30;54536;50.090;14.420;2024-01-25T01:18:58;6.74;6.47;5.38;3.92;33.04;33.00;32.81;31.29;25.29;0.73
67739;SPS30;54536;50.090;14.420;2024-01-25T01:21:34;5.87;5.63;4.68;3.40;28.70;28.67;28.50;27.18;21.94;0.74
67739;SPS30;54536;50.090;14.420;2024-01-25T01:24:01;5.96;5.71;4.70;3.35;28.20;28.17;27.99;26.58;21.29;0.75
67739;SPS30;54536;50.090;14.420;2024-01-25T01:26:27;6.58;6.29;5.15;3.63;30.54;30.50;30.30;28.72;22.90;0.75
67739;SPS30;54536;50.090;14.420;2024-01-25T01:28:53;7.50;7.16;5.80;4.00;33.57;33.53;33.29;31.42;24.82;0.76
67739;SPS30;54536;50.090;14.420;2024-01-25T01:31:20;8.42;8.01;6.35;4.18;34.92;34.87;34.58;32.31;24.96;0.79
67739;SPS30;54536;50.090;14.420;2024-01-25T01:33:46;7.30;6.96;5.58;3.77;31.56;31.52;31.28;29.38;22.98;0.78
67739;SPS30;54536;50.090;14.420;2024-01-25T01:36:13;6.76;6.46;5.27;3.69;31.02;30.99;30.78;29.13;23.16;0.76
67739;SPS30;54536;50.090;14.420;2024-01-25T01:38:39;6.78;6.48;5.26;3.66;30.71;30.67;30.46;28.78;22.80;0.77
67739;SPS30;54536;50.090;14.420;2024-01-25T01:41:06;6.51;6.22;5.07;3.54;29.75;29.71;29.51;27.92;22.17;0.78
67739;SPS30;54536;50.090;14.420;2024-01-25T01:43:32;6.34;6.07;4.98;3.52;29.63;29.60;29.41;27.89;22.28;0.77
67739;SPS30;54536;50.090;14.420;2024-01-25T01:45:59;5.36;5.15;4.31;3.18;26.81;26.79;26.64;25.46;20.67;0.73
67739;SPS30;54536;50.090;14.420;2024-01-25T01:48:35;5.74;5.52;4.65;3.48;29.36;29.33;29.18;27.96;22.81;0.72
67739;SPS30;54536;50.090;14.420;2024-01-25T01:51:01;6.05;5.81;4.84;3.53;29.76;29.74;29.56;28.20;22.80;0.73
67739;SPS30;54536;50.090;14.420;2024-01-25T01:53:27;6.10;5.85;4.83;3.47;29.21;29.18;29.00;27.59;22.16;0.76
67739;SPS30;54536;50.090;14.420;2024-01-25T01:55:54;6.16;5.90;4.84;3.43;28.83;28.80;28.61;27.14;21.69;0.77
67739;SPS30;54536;50.090;14.420;2024-01-25T01:58:20;6.63;6.34;5.17;3.63;30.46;30.42;30.22;28.61;22.75;0.78
67739;SPS30;54536;50.090;14.420;2024-01-25T02:00:49;6.46;6.18;5.04;3.54;29.74;29.70;29.50;27.93;22.23;0.77
67739;SPS30;54536;50.090;14.420;2024-01-25T02:03:16;6.57;6.27;5.08;3.51;29.42;29.39;29.18;27.54;21.75;0.78
67739;SPS30;54536;50.090;14.420;2024-01-25T02:05:42;6.97;6.66;5.38;3.70;31.06;31.02;30.80;29.04;22.90;0.78
67739;SPS30;54536;50.090;14.420;2024-01-25T02:08:08;6.67;6.38;5.19;3.61;30.33;30.29;30.09;28.44;22.55;0.78
67739;SPS30;54536;50.090;14.420;2024-01-25T02:10:35;6.36;6.08;4.98;3.51;29.54;29.50;29.31;27.78;22.16;0.78
67739;SPS30;54536;50.090;14.420;2024-01-25T02:13:01;6.50;6.23;5.13;3.67;30.89;30.85;30.66;29.14;23.37;0.74
67739;SPS30;54536;50.090;14.420;2024-01-25T02:15:27;6.43;6.15;5.02;3.53;29.65;29.61;29.42;27.86;22.17;0.76
67739;SPS30;54536;50.090;14.420;2024-01-25T02:17:53;6.48;6.19;5.02;3.47;29.09;29.06;28.85;27.23;21.52;0.77
67739;SPS30;54536;50.090;14.420;2024-01-25T02:20:19;7.06;6.75;5.48;3.81;31.99;31.95;31.73;29.98;23.75;0.76
67739;SPS30;54536;50.090;14.420;2024-01-25T02:22:46;6.20;5.92;4.82;3.35;28.16;28.12;27.93;26.40;20.93;0.77
67739;SPS30;54536;50.090;14.420;2024-01-25T02:25:12;7.10;6.78;5.48;3.78;31.68;31.64;31.42;29.64;23.39;0.77
67739;SPS30;54536;50.090;14.420;2024-01-25T02:27:38;6.15;5.89;4.80;3.37;28.30;28.27;28.08;26.59;21.15;0.77
67739;SPS30;54536;50.090;14.420;2024-01-25T02:30:07;7.03;6.72;5.43;3.73;31.24;31.21;30.98;29.20;23.01;0.79
67739;SPS30;54536;50.090;14.420;2024-01-25T02:32:34;7.25;6.91;5.54;3.73;31.23;31.19;30.95;29.06;22.70;0.79
67739;SPS30;54536;50.090;14.420;2024-01-25T02:35:01;6.51;6.22;5.04;3.49;29.24;29.21;29.00;27.38;21.64;0.77
67739;SPS30;54536;50.090;14.420;2024-01-25T02:37:27;6.42;6.13;4.96;3.42;28.71;28.67;28.47;26.86;21.20;0.78
67739;SPS30;54536;50.090;14.420;2024-01-25T02:39:53;6.91;6.61;5.37;3.73;31.35;31.31;31.09;29.39;23.29;0.77
67739;SPS30;54536;50.090;14.420;2024-01-25T02:42:19;6.38;6.10;4.98;3.49;29.34;29.31;29.11;27.56;21.92;0.79
67739;SPS30;54536;50.090;14.420;2024-01-25T02:44:45;5.70;5.47;4.53;3.27;27.57;27.54;27.38;26.07;21.00;0.77
67739;SPS30;54536;50.090;14.420;2024-01-25T02:47:11;5.81;5.56;4.57;3.24;27.26;27.23;27.05;25.67;20.52;0.77
67739;SPS30;54536;50.090;14.420;2024-01-25T02:49:38;5.81;5.55;4.48;3.08;25.81;25.78;25.59;24.12;19.01;0.77
67739;SPS30;54536;50.090;14.420;2024-01-25T02:52:03;6.58;6.29;5.08;3.49;29.24;29.21;28.99;27.33;21.54;0.77
67739;SPS30;54536;50.090;14.420;2024-01-25T02:54:30;7.02;6.69;5.36;3.61;30.24;30.20;29.96;28.14;21.99;0.78
67739;SPS30;54536;50.090;14.420;2024-01-25T02:56:55;5.49;5.24;4.24;2.92;24.49;24.46;24.29;22.91;18.08;0.77
67739;SPS30;54536;50.090;14.420;2024-01-25T02:59:21;6.03;5.76;4.66;3.20;26.81;26.77;26.58;25.06;19.75;0.78
67739;SPS30;54536;50.090;14.420;2024-01-25T03:01:48;5.66;5.40;4.37;3.02;25.30;25.27;25.08;23.67;18.69;0.77
67739;SPS30;54536;50.090;14.420;2024-01-25T03:04:14;5.32;5.08;4.14;2.89;24.27;24.24;24.07;22.77;18.07;0.75
67739;SPS30;54536;50.090;14.420;2024-01-25T03:06:41;5.41;5.17;4.17;2.85;23.88;23.85;23.67;22.30;17.54;0.78
67739;SPS30;54536;50.090;14.420;2024-01-25T03:09:08;6.50;6.18;4.92;3.27;27.35;27.31;27.09;25.36;19.68;0.80
67739;SPS30;54536;50.090;14.420;2024-01-25T03:11:34;5.69;5.42;4.32;2.88;24.05;24.01;23.82;22.31;17.33;0.80
67739;SPS30;54536;50.090;14.420;2024-01-25T03:14:00;6.21;5.91;4.70;3.11;26.00;25.96;25.75;24.09;18.67;0.81
67739;SPS30;54536;50.090;14.420;2024-01-25T03:16:26;5.33;5.07;4.05;2.70;22.60;22.57;22.39;20.99;16.33;0.80
67739;SPS30;54536;50.090;14.420;2024-01-25T03:18:52;6.80;6.47;5.16;3.44;28.72;28.68;28.45;26.65;20.71;0.80
67739;SPS30;54536;50.090;14.420;2024-01-25T03:21:18;6.33;6.04;4.86;3.31;27.75;27.72;27.51;25.89;20.33;0.78
67739;SPS30;54536;50.090;14.420;2024-01-25T03:23:44;5.37;5.14;4.18;2.92;24.53;24.50;24.34;23.02;18.27;0.75
67739;SPS30;54536;50.090;14.420;2024-01-25T03:26:10;6.86;6.54;5.28;3.61;30.25;30.21;29.99;28.25;22.22;0.77
67739;SPS30;54536;50.090;14.420;2024-01-25T03:28:36;6.44;6.13;4.88;3.25;27.15;27.11;26.90;25.19;19.56;0.77
67739;SPS30;54536;50.090;14.420;2024-01-25T03:31:04;7.17;6.84;5.48;3.69;30.86;30.82;30.58;28.71;22.42;0.76
67739;SPS30;54536;50.090;14.420;2024-01-25T03:33:31;6.86;6.55;5.31;3.66;30.72;30.69;30.47;28.75;22.71;0.76
67739;SPS30;54536;50.090;14.420;2024-01-25T03:36:04;6.25;5.99;4.97;3.61;30.41;30.37;30.19;28.77;23.21;0.71
67739;SPS30;54536;50.090;14.420;2024-01-25T03:38:31;6.13;5.89;4.92;3.62;30.50;30.47;30.30;28.94;23.47;0.70
67739;SPS30;54536;50.090;14.420;2024-01-25T03:40:57;5.65;5.43;4.54;3.34;28.13;28.11;27.95;26.70;21.65;0.70
67739;SPS30;54536;50.090;14.420;2024-01-25T03:43:24;6.31;6.06;5.05;3.69;31.08;31.05;30.88;29.46;23.83;0.71
67739;SPS30;54536;50.090;14.420;2024-01-25T03:45:51;6.00;5.76;4.79;3.50;29.47;29.44;29.27;27.92;22.57;0.73
67739;SPS30;54536;50.090;14.420;2024-01-25T03:48:17;6.17;5.92;4.91;3.56;30.01;29.98;29.80;28.40;22.90;0.74
67739;SPS30;54536;50.090;14.420;2024-01-25T03:50:43;6.18;5.93;4.90;3.54;29.77;29.74;29.56;28.14;22.64;0.75
67739;SPS30;54536;50.090;14.420;2024-01-25T03:53:09;7.04;6.72;5.44;3.75;31.49;31.45;31.23;29.47;23.27;0.77
67739;SPS30;54536;50.090;14.420;2024-01-25T03:55:35;6.60;6.32;5.17;3.65;30.66;30.62;30.42;28.83;22.99;0.74
67739;SPS30;54536;50.090;14.420;2024-01-25T03:58:01;6.45;6.18;5.09;3.64;30.65;30.62;30.43;28.92;23.20;0.72
67739;SPS30;54536;50.090;14.420;2024-01-25T04:00:27;6.18;5.94;4.94;3.60;30.36;30.33;30.16;28.77;23.26;0.70
67739;SPS30;54536;50.090;14.420;2024-01-25T04:02:54;5.97;5.75;4.86;3.65;30.82;30.80;30.64;29.38;24.02;0.70
67739;SPS30;54536;50.090;14.420;2024-01-25T04:05:19;5.32;5.15;4.48;3.54;30.08;30.05;29.94;28.97;24.13;0.67
67739;SPS30;54536;50.090;14.420;2024-01-25T04:07:46;5.95;5.75;4.93;3.81;32.30;32.28;32.13;30.98;25.59;0.68
67739;SPS30;54536;50.090;14.420;2024-01-25T04:10:12;6.28;6.06;5.17;3.96;33.53;33.51;33.35;32.10;26.43;0.69
67739;SPS30;54536;50.090;14.420;2024-01-25T04:12:38;6.57;6.31;5.23;3.80;32.00;31.96;31.78;30.28;24.43;0.74
67739;SPS30;54536;50.090;14.420;2024-01-25T04:15:05;6.43;6.16;5.06;3.59;30.23;30.19;30.00;28.47;22.78;0.75
67739;SPS30;54536;50.090;14.420;2024-01-25T04:17:31;6.84;6.54;5.36;3.79;31.91;31.87;31.66;30.03;23.97;0.76
67739;SPS30;54536;50.090;14.420;2024-01-25T04:19:57;6.80;6.50;5.29;3.68;30.93;30.89;30.68;29.00;23.00;0.77
67739;SPS30;54536;50.090;14.420;2024-01-25T04:22:23;7.34;7.01;5.67;3.90;32.73;32.69;32.46;30.61;24.15;0.77
67739;SPS30;54536;50.090;14.420;2024-01-25T04:24:49;6.53;6.25;5.11;3.61;30.36;30.33;30.13;28.57;22.79;0.75
67739;SPS30;54536;50.090;14.420;2024-01-25T04:27:15;6.55;6.27;5.13;3.63;30.50;30.47;30.27;28.70;22.90;0.76
67739;SPS30;54536;50.090;14.420;2024-01-25T04:29:42;7.20;6.88;5.57;3.86;32.35;32.31;32.08;30.28;23.94;0.79
67739;SPS30;54536;50.090;14.420;2024-01-25T04:32:09;7.34;7.00;5.65;3.87;32.47;32.43;32.19;30.34;23.88;0.79
67739;SPS30;54536;50.090;14.420;2024-01-25T04:34:35;7.64;7.29;5.86;3.98;33.37;33.33;33.08;31.12;24.41;0.79
67739;SPS30;54536;50.090;14.420;2024-01-25T04:37:02;7.11;6.79;5.52;3.84;32.27;32.23;32.01;30.25;23.98;0.77
67739;SPS30;54536;50.090;14.420;2024-01-25T04:39:28;6.58;6.29;5.12;3.57;29.98;29.94;29.74;28.12;22.31;0.78
67739;SPS30;54536;50.090;14.420;2024-01-25T04:41:54;7.34;7.00;5.61;3.79;31.71;31.67;31.43;29.52;23.08;0.80
67739;SPS30;54536;50.090;14.420;2024-01-25T04:44:20;8.29;7.88;6.23;4.08;34.07;34.02;33.73;31.48;24.26;0.82
67739;SPS30;54536;50.090;14.420;2024-01-25T04:46:46;8.44;8.02;6.34;4.13;34.50;34.45;34.15;31.85;24.50;0.82
67739;SPS30;54536;50.090;14.420;2024-01-25T04:49:12;7.83;7.44;5.89;3.87;32.31;32.26;31.99;29.87;23.05;0.83
67739;SPS30;54536;50.090;14.420;2024-01-25T04:51:38;7.16;6.83;5.48;3.70;30.96;30.92;30.68;28.83;22.54;0.83
67739;SPS30;54536;50.090;14.420;2024-01-25T04:54:04;6.20;5.93;4.81;3.34;28.05;28.01;27.82;26.28;20.81;0.80
67739;SPS30;54536;50.090;14.420;2024-01-25T04:56:30;6.77;6.48;5.29;3.71;31.19;31.15;30.94;29.30;23.31;0.78
67739;SPS30;54536;50.090;14.420;2024-01-25T04:58:56;6.97;6.65;5.34;3.63;30.40;30.37;30.14;28.35;22.23;0.80
67739;SPS30;54536;50.090;14.420;2024-01-25T05:01:22;6.82;6.50;5.21;3.50;29.31;29.28;29.05;27.27;21.29;0.80
67739;SPS30;54536;50.090;14.420;2024-01-25T05:03:48;5.94;5.69;4.65;3.28;27.59;27.56;27.38;25.94;20.68;0.77
67739;SPS30;54536;50.090;14.420;2024-01-25T05:06:14;6.27;6.00;4.89;3.43;28.84;28.80;28.61;27.09;21.55;0.78
67739;SPS30;54536;50.090;14.420;2024-01-25T05:08:41;7.68;7.32;5.88;3.97;33.26;33.22;32.97;30.98;24.24;0.81
67739;SPS30;54536;50.090;14.420;2024-01-25T05:11:08;6.96;6.64;5.34;3.64;30.46;30.43;30.20;28.41;22.30;0.78
67739;SPS30;54536;50.090;14.420;2024-01-25T05:13:34;7.02;6.70;5.43;3.76;31.53;31.50;31.27;29.52;23.34;0.76
67739;SPS30;54536;50.090;14.420;2024-01-25T05:16:01;7.06;6.73;5.43;3.70;31.00;30.96;30.73;28.93;22.73;0.77
67739;SPS30;54536;50.090;14.420;2024-01-25T05:18:26;6.76;6.45;5.18;3.51;29.41;29.37;29.15;27.41;21.48;0.78
67739;SPS30;54536;50.090;14.420;2024-01-25T05:20:53;7.66;7.31;5.88;4.00;33.47;33.43;33.18;31.21;24.48;0.77
67739;SPS30;54536;50.090;14.420;2024-01-25T05:23:18;6.85;6.53;5.24;3.54;29.64;29.60;29.37;27.60;21.59;0.79
67739;SPS30;54536;50.090;14.420;2024-01-25T05:25:45;6.71;6.39;5.12;3.44;28.77;28.73;28.51;26.76;20.88;0.80
67739;SPS30;54536;50.090;14.420;2024-01-25T05:28:11;6.73;6.42;5.15;3.49;29.27;29.23;29.01;27.27;21.37;0.80
67739;SPS30;54536;50.090;14.420;2024-01-25T05:30:37;6.28;5.99;4.86;3.35;28.14;28.11;27.91;26.34;20.81;0.77
67739;SPS30;54536;50.090;14.420;2024-01-25T05:33:04;6.32;6.05;4.95;3.49;29.32;29.29;29.09;27.57;21.98;0.75
67739;SPS30;54536;50.090;14.420;2024-01-25T05:35:30;6.29;6.01;4.88;3.38;28.36;28.33;28.13;26.57;21.03;0.75
67739;SPS30;54536;50.090;14.420;2024-01-25T05:37:56;7.17;6.85;5.55;3.85;32.29;32.25;32.02;30.24;23.93;0.75
67739;SPS30;54536;50.090;14.420;2024-01-25T05:40:22;6.95;6.62;5.31;3.57;29.91;29.87;29.64;27.83;21.74;0.77
67739;SPS30;54536;50.090;14.420;2024-01-25T05:42:48;7.61;7.24;5.76;3.81;31.86;31.81;31.55;29.52;22.87;0.78
67739;SPS30;54536;50.090;14.420;2024-01-25T05:45:14;7.85;7.48;5.98;4.02;33.68;33.64;33.38;31.33;24.45;0.76
67739;SPS30;54536;50.090;14.420;2024-01-25T05:47:40;7.71;7.35;5.88;3.95;33.08;33.03;32.78;30.76;24.01;0.76
67739;SPS30;54536;50.090;14.420;2024-01-25T05:50:09;8.50;8.08;6.39;4.18;34.90;34.85;34.55;32.24;24.84;0.81
67739;SPS30;54536;50.090;14.420;2024-01-25T05:52:35;8.84;8.38;6.56;4.18;34.84;34.78;34.46;31.97;24.31;0.84
67739;SPS30;54536;50.090;14.420;2024-01-25T05:55:06;7.61;7.24;5.71;3.72;31.06;31.02;30.75;28.67;22.04;0.81
67739;SPS30;54536;50.090;14.420;2024-01-25T05:57:32;7.46;7.10;5.62;3.69;30.84;30.80;30.54;28.52;22.01;0.80
67739;SPS30;54536;50.090;14.420;2024-01-25T06:00:00;7.88;7.49;5.92;3.86;32.23;32.19;31.91;29.76;22.89;0.80
67739;SPS30;54536;50.090;14.420;2024-01-25T06:02:26;8.54;8.11;6.40;4.17;34.80;34.75;34.45;32.12;24.68;0.80
67739;SPS30;54536;50.090;14.420;2024-01-25T06:04:52;7.79;7.40;5.82;3.77;31.41;31.37;31.09;28.94;22.16;0.82
67739;SPS30;54536;50.090;14.420;2024-01-25T06:07:18;8.18;7.76;6.07;3.87;32.21;32.16;31.87;29.56;22.47;0.82
67739;SPS30;54536;50.090;14.420;2024-01-25T06:09:46;8.33;7.92;6.24;4.04;33.68;33.63;33.34;31.04;23.79;0.80
67739;SPS30;54536;50.090;14.420;2024-01-25T06:12:12;7.98;7.58;5.95;3.82;31.84;31.79;31.50;29.27;22.34;0.80
67739;SPS30;54536;50.090;14.420;2024-01-25T06:14:38;7.85;7.47;5.91;3.87;32.30;32.25;31.98;29.84;23.00;0.81
67739;SPS30;54536;50.090;14.420;2024-01-25T06:17:04;7.52;7.16;5.71;3.80;31.80;31.75;31.50;29.51;22.93;0.80
67739;SPS30;54536;50.090;14.420;2024-01-25T06:19:30;6.72;6.42;5.23;3.66;30.73;30.70;30.49;28.85;22.91;0.76
67739;SPS30;54536;50.090;14.420;2024-01-25T06:21:56;6.87;6.55;5.23;3.50;29.27;29.23;28.99;27.19;21.17;0.78
67739;SPS30;54536;50.090;14.420;2024-01-25T06:24:22;7.99;7.59;5.96;3.84;31.98;31.93;31.64;29.42;22.47;0.81
67739;SPS30;54536;50.090;14.420;2024-01-25T06:26:48;8.49;8.06;6.30;4.01;33.35;33.29;32.99;30.58;23.22;0.82
67739;SPS30;54536;50.090;14.420;2024-01-25T06:29:14;7.64;7.26;5.74;3.76;31.37;31.33;31.06;28.98;22.33;0.80
67739;SPS30;54536;50.090;14.420;2024-01-25T06:31:43;7.44;7.07;5.57;3.61;30.14;30.10;29.84;27.79;21.31;0.78
67739;SPS30;54536;50.090;14.420;2024-01-25T06:34:10;7.42;7.06;5.60;3.70;30.90;30.86;30.60;28.61;22.13;0.78
67739;SPS30;54536;50.090;14.420;2024-01-25T06:36:36;7.06;6.71;5.32;3.49;29.13;29.09;28.84;26.93;20.78;0.80
67739;SPS30;54536;50.090;14.420;2024-01-25T06:39:03;7.39;7.02;5.56;3.65;30.47;30.43;30.17;28.17;21.73;0.80
67739;SPS30;54536;50.090;14.420;2024-01-25T06:41:32;6.85;6.51;5.16;3.38;28.26;28.22;27.98;26.13;20.16;0.81
67739;SPS30;54536;50.090;14.420;2024-01-25T06:43:59;7.77;7.37;5.77;3.68;30.64;30.59;30.31;28.12;21.38;0.84
67739;SPS30;54536;50.090;14.420;2024-01-25T06:46:25;7.32;6.95;5.45;3.49;29.05;29.01;28.74;26.69;20.34;0.83
67739;SPS30;54536;50.090;14.420;2024-01-25T06:48:52;7.88;7.47;5.80;3.64;30.21;30.16;29.87;27.60;20.79;0.86
67739;SPS30;54536;50.090;14.420;2024-01-25T06:51:18;7.31;6.94;5.42;3.45;28.68;28.64;28.37;26.30;19.96;0.83
67739;SPS30;54536;50.090;14.420;2024-01-25T06:53:45;8.11;7.69;6.00;3.81;31.71;31.66;31.37;29.07;22.04;0.83
67739;SPS30;54536;50.090;14.420;2024-01-25T06:56:12;8.18;7.75;6.01;3.75;31.13;31.07;30.77;28.40;21.34;0.84
67739;SPS30;54536;50.090;14.420;2024-01-25T06:58:38;8.81;8.34;6.43;3.95;32.80;32.74;32.41;29.81;22.22;0.86
67739;SPS30;54536;50.090;14.420;2024-01-25T07:01:04;7.92;7.51;5.86;3.70;30.81;30.76;30.48;28.22;21.36;0.83
67739;SPS30;54536;50.090;14.420;2024-01-25T07:03:33;8.32;7.88;6.12;3.83;31.82;31.76;31.46;29.05;21.87;0.84
67739;SPS30;54536;50.090;14.420;2024-01-25T07:05:59;7.42;7.06;5.60;3.69;30.84;30.80;30.54;28.54;22.06;0.82
67739;SPS30;54536;50.090;14.420;2024-01-25T07:08:25;6.41;6.11;4.90;3.31;27.75;27.71;27.50;25.84;20.22;0.80
67739;SPS30;54536;50.090;14.420;2024-01-25T07:10:51;6.10;5.81;4.65;3.12;26.11;26.08;25.88;24.28;18.94;0.81
67739;SPS30;54536;50.090;14.420;2024-01-25T07:13:17;7.13;6.76;5.29;3.38;28.11;28.06;27.81;25.80;19.62;0.85
67739;SPS30;54536;50.090;14.420;2024-01-25T07:15:43;7.46;7.07;5.51;3.48;28.93;28.89;28.61;26.48;20.02;0.83
67739;SPS30;54536;50.090;14.420;2024-01-25T07:18:10;7.04;6.68;5.21;3.31;27.56;27.52;27.27;25.27;19.17;0.82
67739;SPS30;54536;50.090;14.420;2024-01-25T07:20:36;7.17;6.80;5.29;3.34;27.80;27.76;27.49;25.45;19.24;0.82
67739;SPS30;54536;50.090;14.420;2024-01-25T07:23:02;7.62;7.21;5.55;3.40;28.23;28.18;27.89;25.63;19.07;0.85
67739;SPS30;54536;50.090;14.420;2024-01-25T07:25:28;8.25;7.79;5.95;3.57;29.56;29.51;29.18;26.68;19.60;0.87
67739;SPS30;54536;50.090;14.420;2024-01-25T07:27:55;8.85;8.36;6.39;3.83;31.73;31.67;31.33;28.64;21.05;0.88
67739;SPS30;54536;50.090;14.420;2024-01-25T07:30:21;7.25;6.86;5.28;3.24;26.84;26.80;26.52;24.37;18.13;0.85
67739;SPS30;54536;50.090;14.420;2024-01-25T07:32:47;7.48;7.09;5.51;3.46;28.79;28.74;28.47;26.32;19.85;0.82
67739;SPS30;54536;50.090;14.420;2024-01-25T07:35:15;7.39;7.00;5.42;3.37;27.99;27.94;27.67;25.52;19.14;0.83
67739;SPS30;54536;50.090;14.420;2024-01-25T07:37:41;8.22;7.78;5.99;3.67;30.47;30.41;30.10;27.67;20.59;0.85
67739;SPS30;54536;50.090;14.420;2024-01-25T07:40:08;7.13;6.75;5.23;3.25;26.98;26.93;26.66;24.59;18.43;0.84
67739;SPS30;54536;50.090;14.420;2024-01-25T07:42:35;8.50;8.05;6.24;3.88;32.24;32.19;31.87;29.40;22.06;0.85
67739;SPS30;54536;50.090;14.420;2024-01-25T07:45:01;8.15;7.72;6.00;3.76;31.22;31.17;30.87;28.52;21.47;0.86
67739;SPS30;54536;50.090;14.420;2024-01-25T07:47:27;8.36;7.93;6.18;3.90;32.46;32.40;32.10;29.71;22.47;0.85
67739;SPS30;54536;50.090;14.420;2024-01-25T07:49:53;7.63;7.24;5.66;3.61;30.01;29.97;29.69;27.53;20.91;0.84
67739;SPS30;54536;50.090;14.420;2024-01-25T07:52:19;7.44;7.06;5.51;3.49;29.05;29.00;28.73;26.62;20.17;0.83
67739;SPS30;54536;50.090;14.420;2024-01-25T07:54:44;7.53;7.16;5.67;3.72;31.05;31.01;30.74;28.70;22.13;0.79
67739;SPS30;54536;50.090;14.420;2024-01-25T07:57:11;6.55;6.23;4.93;3.24;27.03;26.99;26.76;24.99;19.28;0.80
67739;SPS30;54536;50.090;14.420;2024-01-25T07:59:37;6.08;5.79;4.63;3.10;25.96;25.92;25.72;24.12;18.80;0.80
67739;SPS30;54536;50.090;14.420;2024-01-25T08:02:03;6.65;6.33;5.02;3.30;27.57;27.53;27.30;25.51;19.70;0.81
67739;SPS30;54536;50.090;14.420;2024-01-25T08:04:29;6.42;6.11;4.88;3.26;27.24;27.20;26.98;25.29;19.67;0.79
67739;SPS30;54536;50.090;14.420;2024-01-25T08:06:55;6.78;6.46;5.17;3.47;29.06;29.02;28.80;27.02;21.09;0.78
67739;SPS30;54536;50.090;14.420;2024-01-25T08:09:21;6.34;6.06;4.93;3.43;28.84;28.80;28.61;27.04;21.44;0.77
67739;SPS30;54536;50.090;14.420;2024-01-25T08:11:48;6.44;6.15;4.98;3.44;28.82;28.79;28.58;26.97;21.30;0.78
67739;SPS30;54536;50.090;14.420;2024-01-25T08:14:14;7.11;6.81;5.56;3.90;32.79;32.75;32.53;30.80;24.51;0.76
67739;SPS30;54536;50.090;14.420;2024-01-25T08:16:41;5.97;5.71;4.65;3.25;27.31;27.28;27.09;25.63;20.35;0.75
67739;SPS30;54536;50.090;14.420;2024-01-25T08:19:07;5.68;5.43;4.43;3.11;26.10;26.07;25.90;24.51;19.49;0.75
67739;SPS30;54536;50.090;14.420;2024-01-25T08:21:33;5.36;5.14;4.23;3.01;25.35;25.33;25.17;23.90;19.14;0.75
67739;SPS30;54536;50.090;14.420;2024-01-25T08:24:01;5.30;5.08;4.17;2.95;24.85;24.82;24.66;23.40;18.70;0.73
67739;SPS30;54536;50.090;14.420;2024-01-25T08:26:28;6.49;6.21;5.07;3.56;29.93;29.89;29.69;28.12;22.38;0.74
67739;SPS30;54536;50.090;14.420;2024-01-25T08:28:53;6.36;6.07;4.91;3.38;28.34;28.31;28.11;26.51;20.91;0.77
67739;SPS30;54536;50.090;14.420;2024-01-25T08:31:20;5.67;5.42;4.41;3.07;25.81;25.78;25.61;24.21;19.20;0.77
67739;SPS30;54536;50.090;14.420;2024-01-25T08:33:45;5.90;5.62;4.51;3.05;25.49;25.46;25.26;23.73;18.56;0.78
67739;SPS30;54536;50.090;14.420;2024-01-25T08:36:13;6.00;5.73;4.62;3.16;26.47;26.44;26.25;24.72;19.45;0.76
67739;SPS30;54536;50.090;14.420;2024-01-25T08:38:42;6.49;6.20;5.03;3.48;29.19;29.15;28.95;27.33;21.60;0.74
67739;SPS30;54536;50.090;14.420;2024-01-25T08:41:09;5.41;5.18;4.24;2.99;25.10;25.07;24.91;23.60;18.82;0.72
67739;SPS30;54536;50.090;14.420;2024-01-25T08:43:36;5.64;5.40;4.42;3.12;26.19;26.16;25.99;24.63;19.64;0.73
67739;SPS30;54536;50.090;14.420;2024-01-25T08:46:03;6.02;5.75;4.65;3.20;26.88;26.85;26.66;25.15;19.85;0.76
67739;SPS30;54536;50.090;14.420;2024-01-25T08:48:30;5.62;5.37;4.36;3.03;25.40;25.37;25.19;23.80;18.84;0.77
67739;SPS30;54536;50.090;14.420;2024-01-25T08:50:56;5.78;5.52;4.44;3.03;25.35;25.32;25.13;23.65;18.57;0.80
67739;SPS30;54536;50.090;14.420;2024-01-25T08:53:22;6.03;5.74;4.57;3.03;25.36;25.33;25.12;23.51;18.24;0.82
67739;SPS30;54536;50.090;14.420;2024-01-25T08:55:55;5.36;5.11;4.10;2.78;23.29;23.26;23.08;21.70;17.00;0.80
67739;SPS30;54536;50.090;14.420;2024-01-25T08:58:21;5.83;5.56;4.46;3.01;25.24;25.20;25.01;23.50;18.38;0.80
67739;SPS30;54536;50.090;14.420;2024-01-25T09:00:47;5.27;5.03;4.07;2.80;23.47;23.45;23.28;21.95;17.31;0.77
67739;SPS30;54536;50.090;14.420;2024-01-25T09:03:14;4.71;4.51;3.70;2.63;22.13;22.10;21.96;20.84;16.67;0.75